Time;durP1;ratioP1;P1;durP2;ratioP2;P2;SDS_P1;SDS_P2;PMS_P1;PMS_P2;Temp;Humidity;BMP_temperature;BMP_pressure;BME280_temperature;BME280_humidity;BME280_pressure;Samples;Min_cycle;Max_cycle;Signal;HPM_P1;HPM_P2
2021/12/05 00:24:13;;;;;;;25.77;15.55;;;3.50;99.90;;;;;;4992460;28;20060;-48
2021/12/05 00:26:40;;;;;;;29.77;14.68;;;3.50;99.90;;;;;;4987821;28;20067;-60
2021/12/05 00:29:31;;;;;;;25.60;14.90;;;3.50;99.90;;;;;;5011623;28;20515;-61
2021/12/05 00:32:06;;;;;;;23.35;14.05;;;3.50;99.90;;;;;;5040877;28;20127;-61
2021/12/05 00:41:19;;;;;;;21.77;13.68;;;3.60;99.90;;;;;;5011234;28;20702;-60
2021/12/05 00:54:17;;;;;;;17.85;11.73;;;3.70;99.90;;;;;;4961599;28;20057;-61
2021/12/05 01:17:44;;;;;;;19.30;9.98;;;3.70;99.90;;;;;;5014746;28;20045;-61
2021/12/05 01:20:14;;;;;;;20.15;10.25;;;3.70;99.90;;;;;;5014662;28;20041;-52
2021/12/05 01:22:53;;;;;;;17.20;10.20;;;3.70;99.90;;;;;;4997653;28;20045;-52
2021/12/05 01:25:46;;;;;;;21.38;10.57;;;3.70;99.90;;;;;;5013750;28;20507;-51
2021/12/05 01:31:21;;;;;;;15.55;9.45;;;3.70;99.90;;;;;;5014326;28;20053;-50
2021/12/05 01:38:56;;;;;;;19.55;10.98;;;3.70;99.90;;;;;;5013921;28;20077;-49
2021/12/05 02:29:29;;;;;;;19.98;13.48;;;3.90;99.90;;;;;;5001226;28;20594;-61
2021/12/05 02:31:00;;;;;;;31.10;18.65;;;3.90;99.90;;;;;;5027902;28;20107;-61
2021/12/05 02:38:50;;;;;;;33.50;19.73;;;3.90;99.90;;;;;;5014574;28;20532;-48
2021/12/05 02:41:24;;;;;;;36.83;20.70;;;3.90;99.90;;;;;;5028083;28;20649;-49
2021/12/05 02:47:05;;;;;;;39.22;21.83;;;4.00;99.90;;;;;;4977216;28;20100;-60
2021/12/05 02:49:36;;;;;;;37.45;23.35;;;4.00;99.90;;;;;;5012598;28;20057;-60
2021/12/05 02:52:08;;;;;;;38.17;21.80;;;3.90;99.90;;;;;;5029764;28;20048;-61
2021/12/05 02:54:39;;;;;;;38.30;24.25;;;4.00;99.90;;;;;;5012264;28;20068;-47
2021/12/05 02:57:09;;;;;;;44.42;24.17;;;4.00;99.90;;;;;;5011402;28;20181;-47
2021/12/05 03:02:14;;;;;;;37.08;23.50;;;4.00;99.90;;;;;;5030813;28;20053;-61
2021/12/05 03:04:49;;;;;;;36.17;21.75;;;4.00;99.90;;;;;;5012569;28;20447;-60
2021/12/05 03:07:25;;;;;;;40.50;22.55;;;4.00;99.90;;;;;;5011870;28;20176;-60
2021/12/05 03:09:53;;;;;;;33.13;21.45;;;4.00;99.90;;;;;;4981247;28;20049;-60
2021/12/05 03:12:19;;;;;;;37.63;21.52;;;4.00;99.90;;;;;;4995782;28;20079;-60
2021/12/05 03:14:50;;;;;;;37.67;21.80;;;4.00;99.90;;;;;;4996237;28;20167;-53
2021/12/05 03:17:17;;;;;;;34.28;22.23;;;3.90;99.90;;;;;;4973709;28;20057;-60
2021/12/05 03:19:43;;;;;;;27.92;20.70;;;4.00;99.90;;;;;;4996115;28;20057;-48
2021/12/05 03:22:11;;;;;;;31.30;19.55;;;3.90;99.90;;;;;;5011230;28;20057;-50
2021/12/05 03:24:37;;;;;;;35.15;22.33;;;3.90;99.90;;;;;;4994553;28;20049;-61
2021/12/05 03:27:03;;;;;;;37.10;21.63;;;3.90;99.90;;;;;;4994174;28;20056;-49
2021/12/05 03:29:30;;;;;;;34.67;20.80;;;3.90;99.90;;;;;;5012514;28;20535;-49
2021/12/05 03:31:57;;;;;;;33.80;19.52;;;3.90;99.90;;;;;;4994820;28;20049;-46
2021/12/05 03:34:26;;;;;;;32.30;18.33;;;3.90;99.90;;;;;;4995152;28;20492;-46
2021/12/05 03:36:57;;;;;;;33.80;19.27;;;3.80;99.90;;;;;;5011075;28;20553;-60
2021/12/05 03:39:27;;;;;;;29.63;17.83;;;3.90;99.90;;;;;;5009929;28;20085;-50
2021/12/05 03:41:55;;;;;;;27.10;17.70;;;3.80;99.90;;;;;;5027050;28;20053;-50
2021/12/05 03:44:26;;;;;;;39.13;18.50;;;3.80;99.90;;;;;;5009520;28;20421;-52
2021/12/05 03:46:56;;;;;;;29.65;17.33;;;3.80;99.90;;;;;;5012644;28;20115;-49
2021/12/05 03:49:24;;;;;;;34.65;18.35;;;3.80;99.90;;;;;;5027874;28;20125;-50
2021/12/05 03:51:54;;;;;;;28.65;17.45;;;3.80;99.90;;;;;;5011269;28;20093;-60
2021/12/05 03:54:21;;;;;;;29.02;18.02;;;3.80;99.90;;;;;;5028749;28;20065;-50
2021/12/05 03:56:49;;;;;;;25.38;16.23;;;3.80;99.90;;;;;;4998211;28;20033;-51
2021/12/05 03:59:18;;;;;;;29.40;17.90;;;3.70;99.90;;;;;;4999795;28;20052;-52
2021/12/05 04:01:47;;;;;;;27.10;17.00;;;3.70;99.90;;;;;;5038927;28;20565;-60
2021/12/05 04:04:17;;;;;;;23.88;15.20;;;3.70;99.90;;;;;;5011638;28;20432;-47
2021/12/05 04:06:45;;;;;;;25.85;14.68;;;3.70;99.90;;;;;;4995189;28;20050;-60
2021/12/05 04:09:14;;;;;;;31.05;15.68;;;3.70;99.90;;;;;;5011141;28;20578;-61
2021/12/05 04:11:47;;;;;;;25.33;15.25;;;3.70;99.90;;;;;;5009477;28;20076;-60
2021/12/05 04:14:16;;;;;;;24.38;15.40;;;3.70;99.90;;;;;;4995240;28;20499;-60
2021/12/05 04:16:44;;;;;;;25.42;15.05;;;3.60;99.90;;;;;;4994824;28;20082;-60
2021/12/05 04:19:11;;;;;;;26.77;15.98;;;3.70;99.90;;;;;;5011994;28;20057;-49
2021/12/05 04:21:38;;;;;;;26.05;15.27;;;3.70;99.90;;;;;;4978672;28;20045;-47
2021/12/05 04:24:12;;;;;;;27.20;14.90;;;3.60;99.90;;;;;;4995264;28;20045;-61
2021/12/05 04:26:39;;;;;;;25.38;15.02;;;3.60;99.90;;;;;;5029227;28;20496;-61
2021/12/05 04:29:07;;;;;;;27.08;15.30;;;3.60;99.90;;;;;;5010683;28;20472;-61
2021/12/05 04:31:36;;;;;;;25.60;13.68;;;3.60;99.90;;;;;;4995239;28;20056;-61
2021/12/05 04:34:03;;;;;;;23.52;13.05;;;3.60;99.90;;;;;;5033593;28;20055;-47
2021/12/05 04:36:29;;;;;;;24.70;12.75;;;3.60;99.90;;;;;;5013950;28;20523;-48
2021/12/05 04:38:57;;;;;;;26.48;12.85;;;3.50;99.90;;;;;;5015078;28;20045;-49
2021/12/05 04:41:23;;;;;;;24.55;12.10;;;3.50;99.90;;;;;;4997831;28;20048;-50
2021/12/05 04:43:51;;;;;;;20.80;12.48;;;3.50;99.90;;;;;;4981543;28;20046;-61
2021/12/05 04:46:21;;;;;;;22.88;12.65;;;3.50;99.90;;;;;;5003804;28;20052;-47
2021/12/05 04:48:50;;;;;;;26.48;12.70;;;3.40;99.90;;;;;;5033163;28;20507;-48
2021/12/05 04:51:19;;;;;;;21.98;12.43;;;3.40;99.90;;;;;;5012673;28;20056;-48
2021/12/05 04:53:48;;;;;;;22.63;12.27;;;3.40;99.90;;;;;;5016883;28;20054;-47
2021/12/05 04:56:18;;;;;;;25.30;12.98;;;3.30;99.90;;;;;;4996989;28;20336;-60
2021/12/05 04:58:44;;;;;;;25.63;13.30;;;3.30;99.90;;;;;;5031690;28;20053;-60
2021/12/05 05:01:10;;;;;;;29.13;12.27;;;3.30;99.90;;;;;;4982058;28;20042;-60
2021/12/05 05:03:37;;;;;;;27.58;13.25;;;3.30;99.90;;;;;;5012969;28;20057;-61
2021/12/05 05:06:14;;;;;;;21.85;11.75;;;3.20;99.90;;;;;;5014201;28;20474;-60
2021/12/05 05:08:43;;;;;;;20.27;12.00;;;3.20;99.90;;;;;;5012842;28;20060;-51
2021/12/05 05:11:12;;;;;;;28.92;11.88;;;3.10;99.90;;;;;;5030299;28;20041;-51
2021/12/05 05:13:39;;;;;;;26.65;12.40;;;3.10;99.90;;;;;;4996835;28;20103;-51
2021/12/05 05:16:07;;;;;;;24.33;12.75;;;3.00;99.90;;;;;;5013885;28;20041;-47
2021/12/05 05:18:42;;;;;;;24.00;12.30;;;3.00;99.90;;;;;;5033173;28;20045;-60
2021/12/05 05:21:30;;;;;;;23.15;11.10;;;3.00;99.90;;;;;;5014007;28;20041;-60
2021/12/05 05:24:19;;;;;;;23.60;11.00;;;3.00;99.90;;;;;;5013644;28;20452;-60
2021/12/05 05:50:40;;;;;;;22.98;10.80;;;2.80;99.90;;;;;;5014892;28;19916;-60
2021/12/05 05:53:07;;;;;;;20.10;10.68;;;2.80;99.90;;;;;;5000493;28;20503;-47
2021/12/05 05:55:34;;;;;;;22.63;11.27;;;2.70;99.90;;;;;;5031111;28;20049;-61
2021/12/05 05:58:09;;;;;;;24.13;11.32;;;2.80;99.90;;;;;;5014201;28;20052;-60
2021/12/05 06:00:50;;;;;;;22.35;11.15;;;2.80;99.90;;;;;;5031575;28;20046;-61
2021/12/05 06:03:22;;;;;;;21.38;10.90;;;2.70;99.90;;;;;;5030926;28;20527;-52
2021/12/05 06:05:55;;;;;;;20.13;10.40;;;2.70;99.90;;;;;;5029647;28;20038;-52
2021/12/05 06:08:24;;;;;;;25.95;10.82;;;2.70;99.90;;;;;;4980167;28;20045;-60
2021/12/05 06:10:52;;;;;;;24.23;12.25;;;2.70;99.90;;;;;;5012119;28;20541;-60
2021/12/05 06:13:19;;;;;;;25.85;11.30;;;2.60;99.90;;;;;;4966400;28;20045;-61
2021/12/05 06:15:46;;;;;;;23.98;11.30;;;2.70;99.90;;;;;;5008354;28;20050;-61
2021/12/05 06:18:13;;;;;;;24.50;12.25;;;2.70;99.90;;;;;;5029876;28;20462;-61
2021/12/05 06:20:40;;;;;;;27.60;12.85;;;2.70;99.90;;;;;;4999341;28;20524;-60
2021/12/05 06:23:08;;;;;;;25.48;11.52;;;2.70;99.90;;;;;;5018022;28;20391;-62
2021/12/05 06:25:36;;;;;;;27.35;12.05;;;2.70;99.90;;;;;;4993996;28;20088;-60
2021/12/05 06:28:06;;;;;;;25.75;11.48;;;2.70;99.90;;;;;;5012712;28;20052;-61
2021/12/05 06:46:21;;;;;;;31.45;13.50;;;3.00;99.90;;;;;;5010829;28;20053;-47
2021/12/05 06:48:48;;;;;;;28.70;14.00;;;3.00;99.90;;;;;;5028186;28;20106;-47
2021/12/05 06:51:21;;;;;;;24.83;13.18;;;3.00;99.90;;;;;;5016399;28;20052;-52
2021/12/05 06:53:47;;;;;;;28.40;12.32;;;3.10;99.90;;;;;;5013481;28;20627;-61
2021/12/05 06:56:14;;;;;;;25.05;12.68;;;3.10;99.90;;;;;;5029295;28;20057;-61
2021/12/05 06:58:40;;;;;;;31.65;15.25;;;3.10;99.90;;;;;;5028388;28;20045;-47
2021/12/05 07:01:08;;;;;;;27.33;13.43;;;3.10;99.90;;;;;;5028291;28;20103;-47
2021/12/05 07:03:38;;;;;;;29.33;14.35;;;3.20;99.90;;;;;;5029801;28;20396;-61
2021/12/05 07:06:09;;;;;;;27.65;14.10;;;3.20;99.90;;;;;;5029890;28;20049;-61
2021/12/05 07:08:38;;;;;;;32.75;14.30;;;3.20;99.90;;;;;;5011367;28;20041;-61
2021/12/05 07:11:22;;;;;;;26.67;14.82;;;3.20;99.90;;;;;;5012872;28;20139;-61
2021/12/05 07:24:02;;;;;;;27.52;14.60;;;3.40;99.90;;;;;;5011364;28;20111;-47
2021/12/05 07:42:41;;;;;;;31.52;14.73;;;3.50;99.90;;;;;;5010658;28;20073;-49
2021/12/05 07:45:11;;;;;;;28.33;14.05;;;3.50;99.90;;;;;;5011840;28;20097;-58
2021/12/05 07:47:41;;;;;;;25.95;14.02;;;3.50;99.90;;;;;;4999071;28;20048;-54
2021/12/05 07:50:10;;;;;;;24.35;13.68;;;3.50;99.90;;;;;;5030097;28;20075;-58
2021/12/05 07:52:47;;;;;;;26.77;14.00;;;3.50;99.90;;;;;;5030247;28;20088;-58
2021/12/05 08:00:26;;;;;;;24.52;14.77;;;3.60;99.90;;;;;;5011121;28;20142;-59
2021/12/05 08:16:40;;;;;;;28.38;14.75;;;3.70;99.90;;;;;;5007237;28;20080;-50
2021/12/05 08:19:07;;;;;;;26.58;14.88;;;3.70;99.90;;;;;;5012288;28;20073;-49
2021/12/05 08:21:33;;;;;;;27.45;13.95;;;3.70;99.90;;;;;;5013191;28;20050;-54
2021/12/05 08:23:59;;;;;;;24.10;14.55;;;3.70;99.90;;;;;;4967807;28;20128;-53
2021/12/05 08:26:32;;;;;;;30.20;14.65;;;3.80;99.90;;;;;;5014747;28;20115;-53
2021/12/05 08:29:06;;;;;;;24.77;14.70;;;3.80;99.90;;;;;;5015235;28;20500;-59
2021/12/05 08:31:55;;;;;;;26.42;14.32;;;3.90;99.90;;;;;;4997299;28;20073;-59
2021/12/05 08:34:42;;;;;;;23.40;14.07;;;3.90;99.90;;;;;;5012489;28;20104;-59
2021/12/05 09:40:10;;;;;;;22.45;12.60;;;4.30;99.90;;;;;;4998257;28;20488;-59
2021/12/05 10:13:05;;;;;;;14.15;11.40;;;4.50;99.90;;;;;;5010340;28;20084;-49
2021/12/05 10:15:26;;;;;;;21.40;12.15;;;4.60;99.90;;;;;;4980433;28;20042;-49
2021/12/05 10:18:42;;;;;;;15.00;10.32;;;4.60;99.90;;;;;;5011726;28;20104;-50
2021/12/05 10:26:57;;;;;;;20.42;11.57;;;4.80;99.90;;;;;;5010630;28;20214;-61
2021/12/05 10:38:04;;;;;;;19.13;10.20;;;5.10;99.90;;;;;;4996005;28;20056;-63
2021/12/05 10:40:47;;;;;;;13.87;9.80;;;5.10;99.90;;;;;;5014966;28;20046;-63
2021/12/05 10:43:20;;;;;;;17.13;9.68;;;5.20;99.90;;;;;;5030373;28;20049;-63
2021/12/05 10:45:52;;;;;;;16.90;8.80;;;5.20;99.90;;;;;;5010954;28;20057;-63
2021/12/05 10:48:36;;;;;;;19.98;9.07;;;5.20;99.90;;;;;;5030083;28;20081;-52
2021/12/05 10:51:04;;;;;;;13.13;9.15;;;5.20;99.90;;;;;;5012944;28;20119;-63
2021/12/05 10:53:46;;;;;;;11.70;8.52;;;5.30;99.90;;;;;;4995855;28;20057;-63
2021/12/05 10:56:43;;;;;;;19.38;9.25;;;5.30;99.90;;;;;;5010574;28;20053;-64
2021/12/05 10:59:11;;;;;;;12.63;8.35;;;5.30;99.90;;;;;;5021394;28;20041;-64
2021/12/05 11:01:41;;;;;;;13.68;8.65;;;5.40;99.90;;;;;;4996015;28;20045;-63
2021/12/05 11:04:16;;;;;;;10.23;8.43;;;5.40;99.90;;;;;;5012380;28;20041;-64
2021/12/05 11:06:53;;;;;;;14.23;9.15;;;5.40;99.90;;;;;;5000739;28;20056;-64
2021/12/05 11:09:32;;;;;;;17.55;7.68;;;5.40;99.90;;;;;;4994272;28;20062;-64
2021/12/05 11:12:03;;;;;;;16.27;8.10;;;5.40;99.90;;;;;;5010015;28;20045;-64
2021/12/05 11:14:36;;;;;;;15.32;7.90;;;5.50;99.90;;;;;;5009894;28;20133;-52
2021/12/05 11:17:09;;;;;;;19.15;7.57;;;5.50;99.90;;;;;;4992462;28;20054;-51
2021/12/05 11:19:42;;;;;;;13.63;8.23;;;5.50;99.90;;;;;;4983167;28;20045;-52
2021/12/05 11:22:16;;;;;;;13.38;7.97;;;5.50;99.90;;;;;;4990503;28;20072;-49
2021/12/05 11:24:47;;;;;;;14.90;8.40;;;5.50;99.90;;;;;;5009151;28;20060;-50
2021/12/05 11:27:19;;;;;;;13.48;7.95;;;5.50;99.90;;;;;;5009974;28;20529;-51
2021/12/05 11:30:02;;;;;;;11.70;7.45;;;5.50;99.90;;;;;;4991792;28;20053;-50
2021/12/05 11:32:36;;;;;;;;;;;5.40;99.90;;;;;;5009181;28;20053;-49
2021/12/05 11:35:32;;;;;;;11.77;7.72;;;5.40;99.90;;;;;;5008952;28;19925;-51
2021/12/05 11:38:03;;;;;;;14.98;8.38;;;5.40;99.90;;;;;;5010211;28;20054;-49
2021/12/05 11:40:40;;;;;;;11.45;8.07;;;5.50;99.90;;;;;;4991392;28;20050;-49
2021/12/05 11:43:07;;;;;;;12.77;8.65;;;5.40;99.90;;;;;;5008054;28;20407;-52
2021/12/05 11:46:08;;;;;;;11.93;8.90;;;5.40;99.90;;;;;;5009611;28;20565;-52
2021/12/05 11:48:34;;;;;;;12.07;8.50;;;5.50;99.90;;;;;;5009043;28;20058;-50
2021/12/05 11:51:16;;;;;;;11.27;8.43;;;5.40;99.90;;;;;;5008669;28;20096;-47
2021/12/05 11:53:45;;;;;;;13.52;8.38;;;5.40;99.90;;;;;;4995996;28;20069;-49
2021/12/05 11:56:20;;;;;;;12.10;8.50;;;5.40;99.90;;;;;;5005722;28;20042;-51
2021/12/05 11:59:21;;;;;;;13.57;8.32;;;5.50;99.90;;;;;;5005320;28;20056;-46
2021/12/05 12:01:49;;;;;;;12.05;8.77;;;5.50;99.90;;;;;;4990468;28;20586;-52
2021/12/05 12:04:18;;;;;;;14.40;8.57;;;5.60;99.90;;;;;;5005841;28;20435;-47
2021/12/05 12:07:04;;;;;;;13.07;8.27;;;5.60;99.90;;;;;;4994144;28;20762;-65
2021/12/05 12:09:31;;;;;;;13.25;8.02;;;5.70;99.90;;;;;;4994598;28;20846;-49
2021/12/05 12:11:57;;;;;;;13.40;7.90;;;5.80;99.90;;;;;;4983822;28;20132;-50
2021/12/05 12:14:23;;;;;;;14.63;9.38;;;5.80;99.90;;;;;;5004438;28;20131;-65
2021/12/05 12:16:50;;;;;;;11.93;7.75;;;5.80;99.90;;;;;;5004443;28;20141;-64
2021/12/05 12:19:21;;;;;;;10.63;6.80;;;5.80;99.90;;;;;;4976948;28;20042;-65
2021/12/05 12:21:49;;;;;;;11.90;6.85;;;5.80;99.90;;;;;;5002325;28;20169;-62
2021/12/05 12:24:17;;;;;;;13.63;7.45;;;5.80;99.90;;;;;;4997560;28;20062;-50
2021/12/05 12:26:44;;;;;;;12.07;7.03;;;5.70;99.90;;;;;;5009657;28;20084;-49
2021/12/05 12:29:12;;;;;;;12.18;7.10;;;5.70;99.90;;;;;;4998241;28;20685;-53
2021/12/05 12:31:41;;;;;;;10.27;6.30;;;5.70;99.90;;;;;;4982398;28;20057;-52
2021/12/05 12:34:26;;;;;;;12.85;7.22;;;5.60;99.90;;;;;;4994348;28;20082;-50
2021/12/05 12:37:00;;;;;;;12.45;6.50;;;5.60;99.90;;;;;;4966374;28;20410;-51
2021/12/05 12:39:39;;;;;;;10.63;6.65;;;5.60;99.90;;;;;;5014856;28;20046;-52
2021/12/05 12:42:15;;;;;;;8.38;6.90;;;5.50;99.90;;;;;;4990021;28;20046;-52
2021/12/05 12:45:04;;;;;;;10.93;7.13;;;5.50;99.90;;;;;;4992960;28;20511;-64
2021/12/05 12:47:52;;;;;;;12.43;6.45;;;5.50;99.90;;;;;;5002143;28;20141;-65
2021/12/05 12:50:36;;;;;;;13.07;6.60;;;5.50;99.90;;;;;;4989152;28;20073;-62
2021/12/05 12:53:04;;;;;;;9.88;7.20;;;5.50;99.90;;;;;;5008676;28;20053;-50
2021/12/05 12:55:33;;;;;;;9.82;6.43;;;5.50;99.90;;;;;;4998823;28;20058;-51
2021/12/05 12:58:04;;;;;;;11.85;6.20;;;5.50;99.90;;;;;;4969462;28;20049;-51
2021/12/05 13:00:32;;;;;;;9.32;6.13;;;5.50;99.90;;;;;;5006982;28;20050;-52
2021/12/05 13:03:02;;;;;;;9.32;6.43;;;5.50;99.90;;;;;;4976915;28;20386;-52
2021/12/05 13:11:09;;;;;;;9.35;6.15;;;5.40;99.90;;;;;;5006856;28;20104;-50
2021/12/05 13:13:38;;;;;;;8.10;5.90;;;5.40;99.90;;;;;;4962533;28;20058;-51
2021/12/05 13:16:31;;;;;;;10.07;6.43;;;5.40;99.90;;;;;;4945101;28;20053;-50
2021/12/05 13:19:09;;;;;;;9.43;6.57;;;5.40;99.90;;;;;;5007244;28;20042;-53
2021/12/05 13:21:42;;;;;;;9.90;6.95;;;5.40;99.90;;;;;;4990684;28;20045;-51
2021/12/05 13:24:31;;;;;;;8.77;6.38;;;5.40;99.90;;;;;;5009685;28;20060;-50
2021/12/05 13:27:03;;;;;;;9.57;6.97;;;5.40;99.90;;;;;;5003288;28;20129;-48
2021/12/05 13:29:48;;;;;;;9.52;6.20;;;5.40;99.90;;;;;;4983192;28;20056;-48
2021/12/05 13:32:24;;;;;;;9.70;6.88;;;5.40;99.90;;;;;;5012320;28;20068;-48
2021/12/05 13:34:53;;;;;;;9.13;7.32;;;5.40;99.90;;;;;;5030477;28;20119;-48
2021/12/05 13:37:27;;;;;;;11.32;6.97;;;5.50;99.90;;;;;;5003367;28;20050;-64
2021/12/05 13:40:16;;;;;;;9.43;6.75;;;5.60;99.90;;;;;;5031816;28;20056;-48
2021/12/05 13:42:55;;;;;;;8.43;6.35;;;5.60;99.90;;;;;;5009921;28;20121;-48
2021/12/05 13:45:27;;;;;;;11.80;7.40;;;5.50;99.90;;;;;;5012508;28;20049;-50
2021/12/05 13:47:53;;;;;;;8.90;6.20;;;5.60;99.90;;;;;;5023984;28;20108;-47
2021/12/05 13:50:22;;;;;;;9.35;7.38;;;5.60;99.90;;;;;;5010980;28;20050;-48
2021/12/05 13:52:55;;;;;;;11.15;7.43;;;5.60;99.90;;;;;;4993721;28;20076;-49
2021/12/05 13:55:59;;;;;;;11.13;7.38;;;5.60;99.90;;;;;;4979203;28;20053;-50
2021/12/05 13:58:41;;;;;;;12.20;6.93;;;6.10;99.90;;;;;;5004730;28;20050;-52
2021/12/05 14:01:10;;;;;;;10.50;6.37;;;6.40;99.90;;;;;;4991149;28;20089;-51
2021/12/05 14:04:08;;;;;;;7.65;5.78;;;6.40;99.90;;;;;;4985723;28;20327;-51
2021/12/05 14:06:47;;;;;;;10.30;6.63;;;6.70;99.90;;;;;;5017787;28;20165;-48
2021/12/05 14:09:47;;;;;;;8.13;5.68;;;6.90;99.90;;;;;;5022656;28;20089;-51
2021/12/05 14:12:27;;;;;;;8.73;5.80;;;7.00;99.90;;;;;;5041376;28;20033;-51
2021/12/05 14:14:59;;;;;;;8.25;5.85;;;6.90;99.90;;;;;;5031011;28;20260;-48
2021/12/05 14:17:33;;;;;;;6.85;5.38;;;6.90;99.90;;;;;;5011342;28;20064;-48
2021/12/05 14:20:12;;;;;;;7.75;5.82;;;7.00;99.90;;;;;;5013324;28;20393;-50
2021/12/05 14:22:41;;;;;;;8.15;6.13;;;7.40;99.90;;;;;;5012903;28;20037;-65
2021/12/05 14:25:12;;;;;;;7.85;5.47;;;7.50;99.90;;;;;;5030015;28;20042;-65
2021/12/05 14:28:06;;;;;;;8.32;4.97;;;7.70;99.90;;;;;;5012135;28;20064;-65
2021/12/05 14:30:34;;;;;;;7.40;5.13;;;7.80;99.90;;;;;;5010473;28;20045;-65
2021/12/05 14:33:02;;;;;;;9.73;6.13;;;7.60;99.90;;;;;;5012180;28;20045;-65
2021/12/05 14:35:40;;;;;;;9.60;5.47;;;7.20;99.90;;;;;;5029746;28;20053;-65
2021/12/05 14:38:08;;;;;;;11.05;7.28;;;6.90;99.90;;;;;;5012185;28;20056;-65
2021/12/05 14:40:36;;;;;;;8.32;6.50;;;6.60;99.90;;;;;;5003448;28;20041;-65
2021/12/05 14:43:05;;;;;;;163.55;114.07;;;6.40;99.90;;;;;;5011887;28;20045;-60
2021/12/05 14:45:37;;;;;;;10.70;7.32;;;6.30;99.90;;;;;;5032304;28;20053;-62
2021/12/05 14:48:11;;;;;;;13.45;8.32;;;6.10;99.90;;;;;;4999117;28;20057;-51
2021/12/05 14:50:40;;;;;;;9.55;6.97;;;6.00;99.90;;;;;;5029678;28;20119;-49
2021/12/05 14:53:09;;;;;;;11.20;7.60;;;5.90;99.90;;;;;;5009788;28;20061;-50
2021/12/05 14:55:36;;;;;;;9.55;7.50;;;5.80;99.90;;;;;;5001329;28;20084;-47
2021/12/05 14:58:06;;;;;;;9.00;6.72;;;5.70;99.90;;;;;;5020672;28;20606;-52
2021/12/05 15:00:42;;;;;;;9.93;8.05;;;5.60;99.90;;;;;;5028278;28;20057;-52
2021/12/05 15:03:13;;;;;;;10.30;7.88;;;5.60;99.90;;;;;;5010887;28;20500;-51
2021/12/05 15:05:43;;;;;;;10.07;7.57;;;5.50;99.90;;;;;;5025650;28;20076;-51
2021/12/05 15:08:12;;;;;;;10.00;7.57;;;5.40;99.90;;;;;;5029317;28;20061;-48
2021/12/05 15:10:41;;;;;;;13.00;8.55;;;5.40;99.90;;;;;;5011830;28;20199;-48
2021/12/05 15:13:09;;;;;;;12.18;8.52;;;5.40;99.90;;;;;;5011507;28;20106;-62
2021/12/05 15:15:36;;;;;;;13.82;9.23;;;5.30;99.90;;;;;;5027883;28;20044;-62
2021/12/05 15:18:02;;;;;;;11.50;7.97;;;5.30;99.90;;;;;;5029781;28;20054;-61
2021/12/05 15:20:32;;;;;;;11.23;8.52;;;5.30;99.90;;;;;;5012092;28;20045;-62
2021/12/05 15:23:06;;;;;;;10.60;8.18;;;5.30;99.90;;;;;;5011798;28;20898;-62
2021/12/05 15:25:34;;;;;;;9.52;8.57;;;5.20;99.90;;;;;;5011329;28;20400;-62
2021/12/05 15:28:00;;;;;;;11.50;8.15;;;5.20;99.90;;;;;;5029437;28;20045;-62
2021/12/05 15:30:30;;;;;;;15.10;10.02;;;5.20;99.90;;;;;;5029394;28;20110;-62
2021/12/05 15:33:04;;;;;;;14.52;10.05;;;5.20;99.90;;;;;;5010897;28;20050;-62
2021/12/05 15:35:30;;;;;;;16.45;13.77;;;5.20;99.90;;;;;;4994971;28;20073;-62
2021/12/05 15:38:04;;;;;;;16.23;14.52;;;5.20;99.90;;;;;;5012452;28;20051;-62
2021/12/05 15:40:32;;;;;;;20.23;14.95;;;5.20;99.90;;;;;;5029426;28;20080;-62
2021/12/05 15:43:14;;;;;;;18.80;14.57;;;5.20;99.90;;;;;;4995577;28;20045;-62
2021/12/05 15:45:42;;;;;;;21.63;19.52;;;5.20;99.90;;;;;;5028328;28;20040;-62
2021/12/05 15:48:08;;;;;;;20.27;18.13;;;5.20;99.90;;;;;;5011402;28;20133;-62
2021/12/05 15:50:37;;;;;;;19.60;17.40;;;5.10;99.90;;;;;;4994999;28;20053;-63
2021/12/05 15:53:10;;;;;;;20.23;15.60;;;5.10;99.90;;;;;;5011696;28;20132;-62
2021/12/05 15:55:43;;;;;;;17.45;15.60;;;5.10;99.90;;;;;;5028323;28;20064;-62
2021/12/05 15:58:17;;;;;;;17.52;14.43;;;5.10;99.90;;;;;;5011028;28;20045;-62
2021/12/05 16:01:06;;;;;;;16.05;13.35;;;5.10;99.90;;;;;;5011256;28;20056;-62
2021/12/05 16:03:44;;;;;;;18.67;13.57;;;5.10;99.90;;;;;;5005069;28;20390;-63
2021/12/05 16:06:15;;;;;;;16.42;14.63;;;5.10;99.90;;;;;;5029138;28;20052;-62
2021/12/05 16:08:44;;;;;;;15.75;12.95;;;5.10;99.90;;;;;;5027840;28;20053;-62
2021/12/05 16:11:16;;;;;;;12.57;10.98;;;5.00;99.90;;;;;;5008682;28;20042;-62
2021/12/05 16:13:44;;;;;;;57.50;42.10;;;5.10;99.90;;;;;;4988997;28;20050;-59
2021/12/05 16:16:28;;;;;;;16.88;12.15;;;5.10;99.90;;;;;;4991285;28;20050;-49
2021/12/05 16:19:00;;;;;;;17.77;12.68;;;5.10;99.90;;;;;;4990024;28;20089;-50
2021/12/05 16:21:30;;;;;;;17.17;12.05;;;5.10;99.90;;;;;;4994941;28;20046;-48
2021/12/05 16:24:06;;;;;;;25.58;19.35;;;5.10;99.90;;;;;;4991281;28;20181;-49
2021/12/05 16:26:33;;;;;;;24.48;19.40;;;5.00;99.90;;;;;;5009862;28;20093;-62
2021/12/05 16:29:06;;;;;;;16.30;14.60;;;5.10;99.90;;;;;;4994714;28;20049;-62
2021/12/05 16:31:38;;;;;;;15.98;13.40;;;5.00;99.90;;;;;;5013057;28;20429;-62
2021/12/05 16:34:17;;;;;;;;;;;5.10;99.90;;;;;;4995921;28;20116;-62
2021/12/05 16:36:47;;;;;;;16.83;13.98;;;5.10;99.90;;;;;;4995618;28;19928;-62
2021/12/05 16:39:40;;;;;;;18.02;13.25;;;5.10;99.90;;;;;;4994908;28;20050;-63
2021/12/05 16:42:11;;;;;;;20.73;14.27;;;5.10;99.90;;;;;;4995517;28;20358;-62
2021/12/05 16:44:40;;;;;;;21.27;14.32;;;5.10;99.90;;;;;;4995235;28;20108;-62
2021/12/05 16:47:17;;;;;;;14.55;12.77;;;5.10;99.90;;;;;;4978141;28;20050;-62
2021/12/05 16:49:47;;;;;;;19.00;13.00;;;5.10;99.90;;;;;;5012300;28;20132;-62
2021/12/05 16:52:21;;;;;;;16.33;13.50;;;5.10;99.90;;;;;;5012226;28;20052;-62
2021/12/05 16:54:53;;;;;;;15.50;13.98;;;5.10;99.90;;;;;;4994519;28;20524;-62
2021/12/05 16:57:24;;;;;;;17.80;12.30;;;5.10;99.90;;;;;;5012298;28;20037;-62
2021/12/05 17:00:00;;;;;;;16.13;12.90;;;5.10;99.90;;;;;;5005393;28;20053;-62
2021/12/05 17:02:28;;;;;;;18.20;15.07;;;5.10;99.90;;;;;;5009160;28;20045;-62
2021/12/05 17:05:05;;;;;;;16.80;13.32;;;5.10;99.90;;;;;;4978393;28;20050;-62
2021/12/05 17:07:38;;;;;;;17.45;13.57;;;5.00;99.90;;;;;;4994791;28;20049;-62
2021/12/05 17:10:08;;;;;;;17.77;14.68;;;5.00;99.90;;;;;;5004783;28;20083;-62
2021/12/05 17:12:35;;;;;;;21.80;15.40;;;5.10;99.90;;;;;;4990960;28;20115;-62
2021/12/05 17:15:15;;;;;;;18.95;15.20;;;5.00;99.90;;;;;;5031084;28;20095;-62
2021/12/05 17:17:46;;;;;;;20.05;15.07;;;5.00;99.90;;;;;;5021824;28;20845;-62
2021/12/05 17:20:27;;;;;;;20.27;15.57;;;5.00;99.90;;;;;;5018773;28;20175;-62
2021/12/05 17:23:03;;;;;;;21.45;15.27;;;5.10;99.90;;;;;;5031582;28;20065;-62
2021/12/05 17:25:39;;;;;;;19.95;15.52;;;5.10;99.90;;;;;;5031471;28;20177;-62
2021/12/05 17:28:10;;;;;;;19.92;16.38;;;5.00;99.90;;;;;;5031706;28;20052;-62
2021/12/05 17:30:48;;;;;;;25.17;16.97;;;5.00;99.90;;;;;;4981528;28;20068;-53
2021/12/05 17:33:48;;;;;;;28.60;20.65;;;5.00;99.90;;;;;;5014291;28;20527;-62
2021/12/05 17:36:35;;;;;;;30.25;19.98;;;5.00;99.90;;;;;;5024241;28;20065;-62
2021/12/05 17:39:17;;;;;;;38.47;23.45;;;5.00;99.90;;;;;;4996404;28;20068;-48
2021/12/05 17:41:48;;;;;;;32.33;21.58;;;5.00;99.90;;;;;;5031416;28;20057;-48
2021/12/05 17:44:17;;;;;;;24.92;18.63;;;5.00;99.90;;;;;;5030330;28;20050;-49
2021/12/05 17:46:47;;;;;;;33.35;21.38;;;5.00;99.90;;;;;;5012602;28;20057;-48
2021/12/05 17:49:16;;;;;;;27.02;19.55;;;5.00;99.90;;;;;;5031539;28;20049;-62
2021/12/05 17:51:43;;;;;;;29.83;20.60;;;5.00;99.90;;;;;;4976971;28;20057;-62
2021/12/05 17:54:25;;;;;;;33.60;23.80;;;5.00;99.90;;;;;;5018843;28;20127;-62
2021/12/05 17:56:54;;;;;;;35.45;23.98;;;5.00;99.90;;;;;;5030592;28;20519;-62
2021/12/05 17:59:29;;;;;;;29.50;22.08;;;5.00;99.90;;;;;;5020409;28;20091;-49
2021/12/05 18:04:46;;;;;;;34.72;23.45;;;5.00;99.90;;;;;;5012743;28;20500;-48
2021/12/05 18:07:12;;;;;;;46.95;36.85;;;5.00;99.90;;;;;;5012978;28;20389;-48
2021/12/05 18:09:39;;;;;;;44.08;31.38;;;5.00;99.90;;;;;;4988315;28;20066;-49
2021/12/05 18:12:08;;;;;;;53.72;40.72;;;5.00;99.90;;;;;;5011305;28;20527;-47
2021/12/05 18:14:36;;;;;;;34.30;25.05;;;5.00;99.90;;;;;;4977224;28;20084;-52
2021/12/05 18:17:03;;;;;;;45.65;26.77;;;4.90;99.90;;;;;;4977460;28;20053;-49
2021/12/05 18:19:29;;;;;;;42.13;29.25;;;5.00;99.90;;;;;;4977073;28;20500;-48
2021/12/05 18:21:55;;;;;;;44.00;29.50;;;4.90;99.90;;;;;;4961944;28;20065;-61
2021/12/05 18:24:23;;;;;;;41.15;29.35;;;5.00;99.90;;;;;;4993129;28;20038;-62
2021/12/05 18:26:50;;;;;;;61.25;42.42;;;4.90;99.90;;;;;;4993397;28;20496;-61
2021/12/05 18:29:17;;;;;;;43.95;28.98;;;5.00;99.90;;;;;;4994002;28;20125;-61
2021/12/05 18:31:46;;;;;;;40.83;29.17;;;5.00;99.90;;;;;;5011595;28;20197;-51
2021/12/05 18:34:18;;;;;;;38.78;30.65;;;5.00;99.90;;;;;;4985444;28;20124;-51
2021/12/05 18:36:45;;;;;;;42.00;30.90;;;4.90;99.90;;;;;;4990651;28;20049;-47
2021/12/05 18:39:24;;;;;;;45.80;32.63;;;4.90;99.90;;;;;;5011787;28;20392;-52